sensor_id;sensor_type;location;lat;lon;timestamp;P1;durP1;ratioP1;P2;durP2;ratioP2
18320;SDS011;54904;54.350;18.664;2024-01-06T00:00:00;44.83;;;18.00;;
18320;SDS011;54904;54.350;18.664;2024-01-06T00:02:37;47.00;;;19.33;;
18320;SDS011;54904;54.350;18.664;2024-01-06T00:05:04;50.40;;;19.70;;
18320;SDS011;54904;54.350;18.664;2024-01-06T00:07:32;50.73;;;20.23;;
18320;SDS011;54904;54.350;18.664;2024-01-06T00:10:01;47.60;;;17.80;;
18320;SDS011;54904;54.350;18.664;2024-01-06T00:12:28;30.17;;;12.27;;
18320;SDS011;54904;54.350;18.664;2024-01-06T00:14:55;40.13;;;17.47;;
18320;SDS011;54904;54.350;18.664;2024-01-06T00:17:24;61.00;;;24.03;;
18320;SDS011;54904;54.350;18.664;2024-01-06T00:19:51;61.90;;;23.40;;
18320;SDS011;54904;54.350;18.664;2024-01-06T00:22:17;60.27;;;22.00;;
18320;SDS011;54904;54.350;18.664;2024-01-06T00:24:44;44.53;;;17.80;;
18320;SDS011;54904;54.350;18.664;2024-01-06T00:27:11;36.80;;;16.57;;
18320;SDS011;54904;54.350;18.664;2024-01-06T00:29:41;37.77;;;15.60;;
18320;SDS011;54904;54.350;18.664;2024-01-06T00:32:08;46.17;;;18.57;;
18320;SDS011;54904;54.350;18.664;2024-01-06T00:34:37;53.17;;;20.47;;
18320;SDS011;54904;54.350;18.664;2024-01-06T00:37:04;49.80;;;20.13;;
18320;SDS011;54904;54.350;18.664;2024-01-06T00:39:31;54.30;;;21.77;;
18320;SDS011;54904;54.350;18.664;2024-01-06T00:41:58;59.17;;;23.07;;
18320;SDS011;54904;54.350;18.664;2024-01-06T00:44:25;49.03;;;19.77;;
18320;SDS011;54904;54.350;18.664;2024-01-06T00:46:52;45.97;;;19.33;;
18320;SDS011;54904;54.350;18.664;2024-01-06T00:49:21;39.53;;;16.30;;
18320;SDS011;54904;54.350;18.664;2024-01-06T00:51:50;37.67;;;17.17;;
18320;SDS011;54904;54.350;18.664;2024-01-06T00:54:17;36.73;;;14.20;;
18320;SDS011;54904;54.350;18.664;2024-01-06T00:56:44;31.17;;;12.63;;
18320;SDS011;54904;54.350;18.664;2024-01-06T00:59:11;30.70;;;12.80;;
18320;SDS011;54904;54.350;18.664;2024-01-06T01:01:38;45.40;;;17.67;;
18320;SDS011;54904;54.350;18.664;2024-01-06T01:04:05;45.40;;;18.10;;
18320;SDS011;54904;54.350;18.664;2024-01-06T01:06:31;38.67;;;15.73;;
18320;SDS011;54904;54.350;18.664;2024-01-06T01:09:00;35.23;;;15.43;;
18320;SDS011;54904;54.350;18.664;2024-01-06T01:11:27;35.30;;;15.87;;
18320;SDS011;54904;54.350;18.664;2024-01-06T01:13:54;36.80;;;15.50;;
18320;SDS011;54904;54.350;18.664;2024-01-06T01:16:24;37.60;;;14.77;;
18320;SDS011;54904;54.350;18.664;2024-01-06T01:18:51;30.87;;;13.17;;
18320;SDS011;54904;54.350;18.664;2024-01-06T01:21:18;30.83;;;13.23;;
18320;SDS011;54904;54.350;18.664;2024-01-06T01:23:45;29.23;;;13.60;;
18320;SDS011;54904;54.350;18.664;2024-01-06T01:26:14;33.17;;;13.80;;
18320;SDS011;54904;54.350;18.664;2024-01-06T01:28:41;27.23;;;12.23;;
18320;SDS011;54904;54.350;18.664;2024-01-06T01:31:08;34.00;;;14.07;;
18320;SDS011;54904;54.350;18.664;2024-01-06T01:33:35;29.17;;;12.27;;
18320;SDS011;54904;54.350;18.664;2024-01-06T01:36:02;32.13;;;13.30;;
18320;SDS011;54904;54.350;18.664;2024-01-06T01:38:29;38.50;;;15.70;;
18320;SDS011;54904;54.350;18.664;2024-01-06T01:40:56;40.03;;;16.33;;
18320;SDS011;54904;54.350;18.664;2024-01-06T01:43:26;43.87;;;18.50;;
18320;SDS011;54904;54.350;18.664;2024-01-06T01:45:54;48.60;;;18.43;;
18320;SDS011;54904;54.350;18.664;2024-01-06T01:48:22;46.83;;;19.37;;
18320;SDS011;54904;54.350;18.664;2024-01-06T01:50:51;47.13;;;17.80;;
18320;SDS011;54904;54.350;18.664;2024-01-06T01:53:19;41.60;;;16.50;;
18320;SDS011;54904;54.350;18.664;2024-01-06T01:55:47;39.47;;;16.57;;
18320;SDS011;54904;54.350;18.664;2024-01-06T01:58:15;39.77;;;17.20;;
18320;SDS011;54904;54.350;18.664;2024-01-06T02:00:44;32.20;;;14.60;;
18320;SDS011;54904;54.350;18.664;2024-01-06T02:03:11;38.40;;;15.13;;
18320;SDS011;54904;54.350;18.664;2024-01-06T02:05:40;32.77;;;14.07;;
18320;SDS011;54904;54.350;18.664;2024-01-06T02:08:07;35.63;;;14.37;;
18320;SDS011;54904;54.350;18.664;2024-01-06T02:10:35;30.33;;;13.53;;
18320;SDS011;54904;54.350;18.664;2024-01-06T02:13:09;42.90;;;16.63;;
18320;SDS011;54904;54.350;18.664;2024-01-06T02:15:36;34.47;;;15.27;;
18320;SDS011;54904;54.350;18.664;2024-01-06T02:18:05;37.20;;;15.50;;
18320;SDS011;54904;54.350;18.664;2024-01-06T02:20:33;36.33;;;14.63;;
18320;SDS011;54904;54.350;18.664;2024-01-06T02:23:01;31.87;;;14.37;;
18320;SDS011;54904;54.350;18.664;2024-01-06T02:25:29;29.10;;;12.90;;
18320;SDS011;54904;54.350;18.664;2024-01-06T02:27:56;27.93;;;12.23;;
18320;SDS011;54904;54.350;18.664;2024-01-06T02:30:23;31.30;;;12.83;;
18320;SDS011;54904;54.350;18.664;2024-01-06T02:32:50;28.53;;;12.50;;
18320;SDS011;54904;54.350;18.664;2024-01-06T02:35:17;34.63;;;13.30;;
18320;SDS011;54904;54.350;18.664;2024-01-06T02:37:46;29.13;;;12.53;;
18320;SDS011;54904;54.350;18.664;2024-01-06T02:40:14;29.60;;;12.73;;
18320;SDS011;54904;54.350;18.664;2024-01-06T02:42:41;31.73;;;13.43;;
18320;SDS011;54904;54.350;18.664;2024-01-06T02:45:08;33.37;;;14.47;;
18320;SDS011;54904;54.350;18.664;2024-01-06T02:47:35;32.17;;;13.10;;
18320;SDS011;54904;54.350;18.664;2024-01-06T02:50:03;31.90;;;12.87;;
18320;SDS011;54904;54.350;18.664;2024-01-06T02:52:31;35.50;;;14.40;;
18320;SDS011;54904;54.350;18.664;2024-01-06T02:54:58;37.80;;;14.50;;
18320;SDS011;54904;54.350;18.664;2024-01-06T02:57:27;31.50;;;13.33;;
18320;SDS011;54904;54.350;18.664;2024-01-06T02:59:55;29.20;;;12.40;;
18320;SDS011;54904;54.350;18.664;2024-01-06T03:02:22;28.90;;;12.70;;
18320;SDS011;54904;54.350;18.664;2024-01-06T03:04:49;28.10;;;11.77;;
18320;SDS011;54904;54.350;18.664;2024-01-06T03:07:16;30.60;;;11.40;;
18320;SDS011;54904;54.350;18.664;2024-01-06T03:09:44;21.50;;;9.30;;
18320;SDS011;54904;54.350;18.664;2024-01-06T03:12:11;15.90;;;7.30;;
18320;SDS011;54904;54.350;18.664;2024-01-06T03:14:39;14.37;;;5.80;;
18320;SDS011;54904;54.350;18.664;2024-01-06T03:17:06;7.70;;;3.67;;
18320;SDS011;54904;54.350;18.664;2024-01-06T03:19:35;5.23;;;2.70;;
18320;SDS011;54904;54.350;18.664;2024-01-06T03:22:03;3.93;;;2.47;;
18320;SDS011;54904;54.350;18.664;2024-01-06T03:24:30;3.90;;;1.63;;
18320;SDS011;54904;54.350;18.664;2024-01-06T03:26:57;2.23;;;1.20;;
18320;SDS011;54904;54.350;18.664;2024-01-06T03:29:24;1.73;;;0.87;;
18320;SDS011;54904;54.350;18.664;2024-01-06T03:31:52;0.70;;;0.70;;
18320;SDS011;54904;54.350;18.664;2024-01-06T03:34:20;2.20;;;0.90;;
18320;SDS011;54904;54.350;18.664;2024-01-06T03:36:47;0.57;;;0.57;;
18320;SDS011;54904;54.350;18.664;2024-01-06T03:39:14;0.73;;;0.70;;
18320;SDS011;54904;54.350;18.664;2024-01-06T03:41:41;0.70;;;0.70;;
18320;SDS011;54904;54.350;18.664;2024-01-06T03:44:08;0.47;;;0.47;;
18320;SDS011;54904;54.350;18.664;2024-01-06T03:46:35;1.37;;;0.67;;
18320;SDS011;54904;54.350;18.664;2024-01-06T03:49:03;0.40;;;0.40;;
18320;SDS011;54904;54.350;18.664;2024-01-06T03:51:30;0.43;;;0.37;;
18320;SDS011;54904;54.350;18.664;2024-01-06T03:53:57;0.67;;;0.40;;
18320;SDS011;54904;54.350;18.664;2024-01-06T03:56:25;0.50;;;0.40;;
18320;SDS011;54904;54.350;18.664;2024-01-06T03:58:52;0.50;;;0.50;;
18320;SDS011;54904;54.350;18.664;2024-01-06T04:01:19;0.70;;;0.70;;
18320;SDS011;54904;54.350;18.664;2024-01-06T04:03:47;0.70;;;0.70;;
18320;SDS011;54904;54.350;18.664;2024-01-06T04:06:15;0.60;;;0.60;;
18320;SDS011;54904;54.350;18.664;2024-01-06T04:08:42;1.27;;;0.70;;
18320;SDS011;54904;54.350;18.664;2024-01-06T04:11:09;0.77;;;0.73;;
18320;SDS011;54904;54.350;18.664;2024-01-06T04:13:36;0.60;;;0.60;;
18320;SDS011;54904;54.350;18.664;2024-01-06T04:16:03;1.23;;;0.73;;
18320;SDS011;54904;54.350;18.664;2024-01-06T04:18:31;0.53;;;0.53;;
18320;SDS011;54904;54.350;18.664;2024-01-06T04:20:58;0.53;;;0.53;;
18320;SDS011;54904;54.350;18.664;2024-01-06T04:23:26;0.87;;;0.50;;
18320;SDS011;54904;54.350;18.664;2024-01-06T04:25:53;0.47;;;0.47;;
18320;SDS011;54904;54.350;18.664;2024-01-06T04:28:20;0.60;;;0.60;;
18320;SDS011;54904;54.350;18.664;2024-01-06T04:30:47;2.00;;;0.50;;
18320;SDS011;54904;54.350;18.664;2024-01-06T04:33:14;2.37;;;0.80;;
18320;SDS011;54904;54.350;18.664;2024-01-06T04:35:41;0.50;;;0.50;;
18320;SDS011;54904;54.350;18.664;2024-01-06T04:38:09;3.50;;;0.50;;
18320;SDS011;54904;54.350;18.664;2024-01-06T04:40:37;0.50;;;0.50;;
18320;SDS011;54904;54.350;18.664;2024-01-06T04:43:04;0.60;;;0.60;;
18320;SDS011;54904;54.350;18.664;2024-01-06T04:45:31;0.83;;;0.50;;
18320;SDS011;54904;54.350;18.664;2024-01-06T04:47:58;0.40;;;0.40;;
18320;SDS011;54904;54.350;18.664;2024-01-06T04:50:25;0.67;;;0.50;;
18320;SDS011;54904;54.350;18.664;2024-01-06T04:52:52;0.40;;;0.40;;
18320;SDS011;54904;54.350;18.664;2024-01-06T04:55:19;1.37;;;0.67;;
18320;SDS011;54904;54.350;18.664;2024-01-06T04:57:49;0.40;;;0.40;;
18320;SDS011;54904;54.350;18.664;2024-01-06T05:00:16;0.40;;;0.40;;
18320;SDS011;54904;54.350;18.664;2024-01-06T05:02:43;0.40;;;0.40;;
18320;SDS011;54904;54.350;18.664;2024-01-06T05:05:10;0.63;;;0.50;;
18320;SDS011;54904;54.350;18.664;2024-01-06T05:07:37;0.60;;;0.60;;
18320;SDS011;54904;54.350;18.664;2024-01-06T05:10:05;0.40;;;0.40;;
18320;SDS011;54904;54.350;18.664;2024-01-06T05:12:33;0.63;;;0.63;;
18320;SDS011;54904;54.350;18.664;2024-01-06T05:15:02;0.87;;;0.60;;
18320;SDS011;54904;54.350;18.664;2024-01-06T05:17:29;1.27;;;0.60;;
18320;SDS011;54904;54.350;18.664;2024-01-06T05:19:56;0.87;;;0.87;;
18320;SDS011;54904;54.350;18.664;2024-01-06T05:22:23;0.70;;;0.70;;
18320;SDS011;54904;54.350;18.664;2024-01-06T05:24:50;0.63;;;0.50;;
18320;SDS011;54904;54.350;18.664;2024-01-06T05:27:18;0.33;;;0.33;;
18320;SDS011;54904;54.350;18.664;2024-01-06T05:29:45;0.57;;;0.57;;
18320;SDS011;54904;54.350;18.664;2024-01-06T05:32:15;0.47;;;0.47;;
18320;SDS011;54904;54.350;18.664;2024-01-06T05:34:43;0.90;;;0.60;;
18320;SDS011;54904;54.350;18.664;2024-01-06T05:37:10;0.50;;;0.50;;
18320;SDS011;54904;54.350;18.664;2024-01-06T05:39:38;0.70;;;0.70;;
18320;SDS011;54904;54.350;18.664;2024-01-06T05:42:05;0.63;;;0.60;;
18320;SDS011;54904;54.350;18.664;2024-01-06T05:44:35;0.47;;;0.47;;
18320;SDS011;54904;54.350;18.664;2024-01-06T05:47:02;1.30;;;0.73;;
18320;SDS011;54904;54.350;18.664;2024-01-06T05:49:31;1.60;;;0.40;;
18320;SDS011;54904;54.350;18.664;2024-01-06T05:51:58;0.60;;;0.60;;
18320;SDS011;54904;54.350;18.664;2024-01-06T05:54:25;0.60;;;0.60;;
18320;SDS011;54904;54.350;18.664;2024-01-06T05:56:52;0.73;;;0.50;;
18320;SDS011;54904;54.350;18.664;2024-01-06T05:59:19;1.10;;;0.70;;
18320;SDS011;54904;54.350;18.664;2024-01-06T06:01:46;0.77;;;0.57;;
18320;SDS011;54904;54.350;18.664;2024-01-06T06:04:13;0.50;;;0.50;;
18320;SDS011;54904;54.350;18.664;2024-01-06T06:06:42;0.67;;;0.67;;
18320;SDS011;54904;54.350;18.664;2024-01-06T06:09:09;0.60;;;0.60;;
18320;SDS011;54904;54.350;18.664;2024-01-06T06:11:36;0.60;;;0.60;;
18320;SDS011;54904;54.350;18.664;2024-01-06T06:14:03;0.93;;;0.50;;
18320;SDS011;54904;54.350;18.664;2024-01-06T06:16:30;1.33;;;0.40;;
18320;SDS011;54904;54.350;18.664;2024-01-06T06:18:57;0.50;;;0.50;;
18320;SDS011;54904;54.350;18.664;2024-01-06T06:21:24;1.30;;;0.60;;
18320;SDS011;54904;54.350;18.664;2024-01-06T06:23:53;0.90;;;0.40;;
18320;SDS011;54904;54.350;18.664;2024-01-06T06:26:21;1.43;;;0.80;;
18320;SDS011;54904;54.350;18.664;2024-01-06T06:28:48;0.70;;;0.60;;
18320;SDS011;54904;54.350;18.664;2024-01-06T06:31:15;0.50;;;0.50;;
18320;SDS011;54904;54.350;18.664;2024-01-06T06:33:42;1.07;;;0.60;;
18320;SDS011;54904;54.350;18.664;2024-01-06T06:36:10;0.57;;;0.57;;
18320;SDS011;54904;54.350;18.664;2024-01-06T06:38:37;0.60;;;0.60;;
18320;SDS011;54904;54.350;18.664;2024-01-06T06:41:05;2.07;;;0.70;;
18320;SDS011;54904;54.350;18.664;2024-01-06T06:43:32;0.60;;;0.60;;
18320;SDS011;54904;54.350;18.664;2024-01-06T06:45:59;0.60;;;0.60;;
18320;SDS011;54904;54.350;18.664;2024-01-06T06:48:27;0.60;;;0.50;;
18320;SDS011;54904;54.350;18.664;2024-01-06T06:50:54;0.57;;;0.57;;
18320;SDS011;54904;54.350;18.664;2024-01-06T06:53:21;0.50;;;0.50;;
18320;SDS011;54904;54.350;18.664;2024-01-06T06:55:48;0.47;;;0.47;;
18320;SDS011;54904;54.350;18.664;2024-01-06T06:58:17;0.50;;;0.50;;
18320;SDS011;54904;54.350;18.664;2024-01-06T07:00:44;0.30;;;0.30;;
18320;SDS011;54904;54.350;18.664;2024-01-06T07:03:11;0.80;;;0.50;;
18320;SDS011;54904;54.350;18.664;2024-01-06T07:05:39;0.40;;;0.40;;
18320;SDS011;54904;54.350;18.664;2024-01-06T07:08:06;0.43;;;0.43;;
18320;SDS011;54904;54.350;18.664;2024-01-06T07:10:33;0.50;;;0.50;;
18320;SDS011;54904;54.350;18.664;2024-01-06T07:13:00;0.60;;;0.60;;
18320;SDS011;54904;54.350;18.664;2024-01-06T07:15:28;0.60;;;0.53;;
18320;SDS011;54904;54.350;18.664;2024-01-06T07:17:55;0.93;;;0.60;;
18320;SDS011;54904;54.350;18.664;2024-01-06T07:20:22;0.70;;;0.53;;
18320;SDS011;54904;54.350;18.664;2024-01-06T07:22:49;0.63;;;0.63;;
18320;SDS011;54904;54.350;18.664;2024-01-06T07:25:16;1.13;;;1.00;;
18320;SDS011;54904;54.350;18.664;2024-01-06T07:27:43;0.90;;;0.90;;
18320;SDS011;54904;54.350;18.664;2024-01-06T07:30:11;1.47;;;0.90;;
18320;SDS011;54904;54.350;18.664;2024-01-06T07:32:40;1.53;;;0.70;;
18320;SDS011;54904;54.350;18.664;2024-01-06T07:35:07;0.63;;;0.63;;
18320;SDS011;54904;54.350;18.664;2024-01-06T07:37:34;0.70;;;0.60;;
18320;SDS011;54904;54.350;18.664;2024-01-06T07:40:01;0.67;;;0.67;;
18320;SDS011;54904;54.350;18.664;2024-01-06T07:42:29;0.53;;;0.53;;
18320;SDS011;54904;54.350;18.664;2024-01-06T07:44:56;1.17;;;0.77;;
18320;SDS011;54904;54.350;18.664;2024-01-06T07:47:24;0.50;;;0.50;;
18320;SDS011;54904;54.350;18.664;2024-01-06T07:49:54;0.50;;;0.50;;
18320;SDS011;54904;54.350;18.664;2024-01-06T07:52:22;1.53;;;0.60;;
18320;SDS011;54904;54.350;18.664;2024-01-06T07:54:49;1.57;;;0.60;;
18320;SDS011;54904;54.350;18.664;2024-01-06T07:57:16;0.50;;;0.50;;
18320;SDS011;54904;54.350;18.664;2024-01-06T07:59:44;1.30;;;0.57;;
18320;SDS011;54904;54.350;18.664;2024-01-06T08:02:11;0.70;;;0.70;;
18320;SDS011;54904;54.350;18.664;2024-01-06T08:04:39;0.70;;;0.70;;
18320;SDS011;54904;54.350;18.664;2024-01-06T08:07:07;1.23;;;0.60;;
18320;SDS011;54904;54.350;18.664;2024-01-06T08:09:34;2.70;;;0.60;;
18320;SDS011;54904;54.350;18.664;2024-01-06T08:12:01;1.10;;;0.90;;
18320;SDS011;54904;54.350;18.664;2024-01-06T08:14:28;1.80;;;1.00;;
18320;SDS011;54904;54.350;18.664;2024-01-06T08:16:56;1.53;;;1.33;;
18320;SDS011;54904;54.350;18.664;2024-01-06T08:19:23;1.93;;;1.33;;
18320;SDS011;54904;54.350;18.664;2024-01-06T08:21:50;3.27;;;1.50;;
18320;SDS011;54904;54.350;18.664;2024-01-06T08:24:19;2.17;;;1.60;;
18320;SDS011;54904;54.350;18.664;2024-01-06T08:26:46;1.50;;;1.17;;
18320;SDS011;54904;54.350;18.664;2024-01-06T08:29:14;1.63;;;1.30;;
18320;SDS011;54904;54.350;18.664;2024-01-06T08:31:41;1.20;;;1.10;;
18320;SDS011;54904;54.350;18.664;2024-01-06T08:34:08;2.03;;;1.00;;
18320;SDS011;54904;54.350;18.664;2024-01-06T08:36:35;1.30;;;1.00;;
18320;SDS011;54904;54.350;18.664;2024-01-06T08:39:04;1.97;;;1.13;;
18320;SDS011;54904;54.350;18.664;2024-01-06T08:41:35;1.10;;;1.00;;
18320;SDS011;54904;54.350;18.664;2024-01-06T08:44:02;1.33;;;1.23;;
18320;SDS011;54904;54.350;18.664;2024-01-06T08:46:29;0.73;;;0.73;;
18320;SDS011;54904;54.350;18.664;2024-01-06T08:48:56;0.77;;;0.77;;
18320;SDS011;54904;54.350;18.664;2024-01-06T08:51:23;0.83;;;0.77;;
18320;SDS011;54904;54.350;18.664;2024-01-06T08:53:51;1.63;;;0.80;;
18320;SDS011;54904;54.350;18.664;2024-01-06T08:56:19;0.60;;;0.60;;
18320;SDS011;54904;54.350;18.664;2024-01-06T08:58:48;1.37;;;0.70;;
18320;SDS011;54904;54.350;18.664;2024-01-06T09:01:15;0.50;;;0.50;;
18320;SDS011;54904;54.350;18.664;2024-01-06T09:03:42;1.00;;;0.70;;
18320;SDS011;54904;54.350;18.664;2024-01-06T09:06:09;0.50;;;0.50;;
18320;SDS011;54904;54.350;18.664;2024-01-06T09:08:36;0.93;;;0.80;;
18320;SDS011;54904;54.350;18.664;2024-01-06T09:11:03;1.00;;;1.00;;
18320;SDS011;54904;54.350;18.664;2024-01-06T09:13:30;1.20;;;1.10;;
18320;SDS011;54904;54.350;18.664;2024-01-06T09:15:59;2.00;;;1.37;;
18320;SDS011;54904;54.350;18.664;2024-01-06T09:18:27;3.00;;;1.57;;
18320;SDS011;54904;54.350;18.664;2024-01-06T09:20:54;2.83;;;2.30;;
18320;SDS011;54904;54.350;18.664;2024-01-06T09:23:21;2.87;;;1.90;;
18320;SDS011;54904;54.350;18.664;2024-01-06T09:25:48;2.37;;;1.87;;
18320;SDS011;54904;54.350;18.664;2024-01-06T09:28:17;5.57;;;3.40;;
18320;SDS011;54904;54.350;18.664;2024-01-06T09:30:46;4.03;;;3.00;;
18320;SDS011;54904;54.350;18.664;2024-01-06T09:33:15;6.57;;;4.00;;
18320;SDS011;54904;54.350;18.664;2024-01-06T09:35:42;5.57;;;3.50;;
18320;SDS011;54904;54.350;18.664;2024-01-06T09:38:10;3.87;;;2.67;;
18320;SDS011;54904;54.350;18.664;2024-01-06T09:40:41;2.33;;;2.10;;
18320;SDS011;54904;54.350;18.664;2024-01-06T09:43:09;2.87;;;2.07;;
18320;SDS011;54904;54.350;18.664;2024-01-06T09:45:36;1.50;;;1.40;;
18320;SDS011;54904;54.350;18.664;2024-01-06T09:48:07;2.50;;;1.57;;
18320;SDS011;54904;54.350;18.664;2024-01-06T09:50:39;1.50;;;1.40;;
18320;SDS011;54904;54.350;18.664;2024-01-06T09:53:08;2.20;;;2.00;;
18320;SDS011;54904;54.350;18.664;2024-01-06T09:55:37;2.20;;;2.00;;
18320;SDS011;54904;54.350;18.664;2024-01-06T09:58:05;2.60;;;2.00;;
18320;SDS011;54904;54.350;18.664;2024-01-06T10:00:32;2.10;;;1.50;;
18320;SDS011;54904;54.350;18.664;2024-01-06T10:02:59;1.77;;;1.40;;
18320;SDS011;54904;54.350;18.664;2024-01-06T10:05:26;1.20;;;1.10;;
18320;SDS011;54904;54.350;18.664;2024-01-06T10:07:55;2.60;;;1.20;;
18320;SDS011;54904;54.350;18.664;2024-01-06T10:10:22;1.83;;;1.30;;
18320;SDS011;54904;54.350;18.664;2024-01-06T10:12:52;3.27;;;1.50;;
18320;SDS011;54904;54.350;18.664;2024-01-06T10:15:23;3.63;;;1.50;;
18320;SDS011;54904;54.350;18.664;2024-01-06T10:17:50;1.87;;;1.40;;
18320;SDS011;54904;54.350;18.664;2024-01-06T10:20:17;2.07;;;0.97;;
18320;SDS011;54904;54.350;18.664;2024-01-06T10:22:45;2.10;;;1.20;;
18320;SDS011;54904;54.350;18.664;2024-01-06T10:25:13;1.80;;;1.20;;
18320;SDS011;54904;54.350;18.664;2024-01-06T10:27:41;1.57;;;0.97;;
18320;SDS011;54904;54.350;18.664;2024-01-06T10:30:08;1.33;;;1.10;;
18320;SDS011;54904;54.350;18.664;2024-01-06T10:32:38;0.83;;;0.83;;
18320;SDS011;54904;54.350;18.664;2024-01-06T10:35:06;0.83;;;0.80;;
18320;SDS011;54904;54.350;18.664;2024-01-06T10:37:36;3.37;;;0.90;;
18320;SDS011;54904;54.350;18.664;2024-01-06T10:40:09;3.60;;;1.33;;
18320;SDS011;54904;54.350;18.664;2024-01-06T10:42:38;2.80;;;1.20;;
18320;SDS011;54904;54.350;18.664;2024-01-06T10:45:07;1.40;;;1.30;;
18320;SDS011;54904;54.350;18.664;2024-01-06T10:47:35;1.97;;;1.57;;
18320;SDS011;54904;54.350;18.664;2024-01-06T10:50:03;1.60;;;1.50;;
18320;SDS011;54904;54.350;18.664;2024-01-06T10:52:31;1.13;;;1.10;;
18320;SDS011;54904;54.350;18.664;2024-01-06T10:55:00;0.83;;;0.83;;
18320;SDS011;54904;54.350;18.664;2024-01-06T10:57:29;1.07;;;0.97;;
18320;SDS011;54904;54.350;18.664;2024-01-06T10:59:59;0.90;;;0.80;;
18320;SDS011;54904;54.350;18.664;2024-01-06T11:02:27;0.70;;;0.70;;
18320;SDS011;54904;54.350;18.664;2024-01-06T11:04:54;0.60;;;0.50;;
18320;SDS011;54904;54.350;18.664;2024-01-06T11:07:22;1.67;;;0.70;;
18320;SDS011;54904;54.350;18.664;2024-01-06T11:09:52;0.60;;;0.60;;
18320;SDS011;54904;54.350;18.664;2024-01-06T11:12:23;0.57;;;0.50;;
18320;SDS011;54904;54.350;18.664;2024-01-06T11:14:51;0.50;;;0.50;;
18320;SDS011;54904;54.350;18.664;2024-01-06T11:20:20;0.40;;;0.40;;
18320;SDS011;54904;54.350;18.664;2024-01-06T11:22:48;0.40;;;0.40;;
18320;SDS011;54904;54.350;18.664;2024-01-06T11:25:16;1.23;;;1.07;;
18320;SDS011;54904;54.350;18.664;2024-01-06T11:27:45;2.07;;;1.10;;
18320;SDS011;54904;54.350;18.664;2024-01-06T11:30:19;1.67;;;0.90;;
18320;SDS011;54904;54.350;18.664;2024-01-06T11:32:48;0.80;;;0.77;;
18320;SDS011;54904;54.350;18.664;2024-01-06T11:35:19;1.07;;;0.97;;
18320;SDS011;54904;54.350;18.664;2024-01-06T11:37:53;1.57;;;1.20;;
18320;SDS011;54904;54.350;18.664;2024-01-06T11:40:30;0.80;;;0.80;;
18320;SDS011;54904;54.350;18.664;2024-01-06T11:43:02;0.87;;;0.83;;
18320;SDS011;54904;54.350;18.664;2024-01-06T11:45:31;0.97;;;0.90;;
18320;SDS011;54904;54.350;18.664;2024-01-06T11:48:01;1.67;;;0.70;;
18320;SDS011;54904;54.350;18.664;2024-01-06T11:50:29;0.63;;;0.63;;
18320;SDS011;54904;54.350;18.664;2024-01-06T11:52:58;0.70;;;0.70;;
18320;SDS011;54904;54.350;18.664;2024-01-06T11:55:26;0.40;;;0.40;;
18320;SDS011;54904;54.350;18.664;2024-01-06T11:57:54;0.50;;;0.50;;
18320;SDS011;54904;54.350;18.664;2024-01-06T12:00:23;0.40;;;0.40;;
18320;SDS011;54904;54.350;18.664;2024-01-06T12:02:55;0.43;;;0.43;;
18320;SDS011;54904;54.350;18.664;2024-01-06T12:05:24;0.60;;;0.60;;
18320;SDS011;54904;54.350;18.664;2024-01-06T12:07:55;0.60;;;0.60;;
18320;SDS011;54904;54.350;18.664;2024-01-06T12:10:25;0.70;;;0.70;;
18320;SDS011;54904;54.350;18.664;2024-01-06T12:12:54;1.20;;;0.70;;
18320;SDS011;54904;54.350;18.664;2024-01-06T12:15:23;0.97;;;0.70;;
18320;SDS011;54904;54.350;18.664;2024-01-06T12:17:50;0.80;;;0.80;;
18320;SDS011;54904;54.350;18.664;2024-01-06T12:20:17;0.70;;;0.70;;
18320;SDS011;54904;54.350;18.664;2024-01-06T12:22:46;1.53;;;0.93;;
18320;SDS011;54904;54.350;18.664;2024-01-06T12:25:14;0.70;;;0.70;;
18320;SDS011;54904;54.350;18.664;2024-01-06T12:27:42;0.50;;;0.50;;
18320;SDS011;54904;54.350;18.664;2024-01-06T12:30:12;0.77;;;0.70;;
18320;SDS011;54904;54.350;18.664;2024-01-06T12:32:42;0.67;;;0.67;;
18320;SDS011;54904;54.350;18.664;2024-01-06T12:35:09;0.50;;;0.50;;
18320;SDS011;54904;54.350;18.664;2024-01-06T12:37:37;0.40;;;0.40;;
18320;SDS011;54904;54.350;18.664;2024-01-06T12:40:06;1.50;;;0.60;;
18320;SDS011;54904;54.350;18.664;2024-01-06T12:42:38;1.13;;;0.70;;
18320;SDS011;54904;54.350;18.664;2024-01-06T12:45:05;1.30;;;0.40;;
18320;SDS011;54904;54.350;18.664;2024-01-06T12:47:33;0.40;;;0.40;;
18320;SDS011;54904;54.350;18.664;2024-01-06T12:50:01;0.47;;;0.43;;
18320;SDS011;54904;54.350;18.664;2024-01-06T12:52:29;0.50;;;0.50;;
18320;SDS011;54904;54.350;18.664;2024-01-06T12:54:56;0.70;;;0.70;;
18320;SDS011;54904;54.350;18.664;2024-01-06T12:57:25;1.07;;;0.80;;
18320;SDS011;54904;54.350;18.664;2024-01-06T12:59:52;0.60;;;0.60;;
18320;SDS011;54904;54.350;18.664;2024-01-06T13:02:19;0.70;;;0.70;;
18320;SDS011;54904;54.350;18.664;2024-01-06T13:04:47;1.47;;;0.67;;
18320;SDS011;54904;54.350;18.664;2024-01-06T13:07:14;1.10;;;0.80;;
18320;SDS011;54904;54.350;18.664;2024-01-06T13:09:41;1.93;;;0.80;;
18320;SDS011;54904;54.350;18.664;2024-01-06T13:12:09;3.80;;;1.10;;
18320;SDS011;54904;54.350;18.664;2024-01-06T13:14:38;1.03;;;0.93;;
18320;SDS011;54904;54.350;18.664;2024-01-06T13:17:05;0.73;;;0.70;;
18320;SDS011;54904;54.350;18.664;2024-01-06T13:19:34;1.20;;;0.90;;
18320;SDS011;54904;54.350;18.664;2024-01-06T13:22:01;0.63;;;0.63;;
18320;SDS011;54904;54.350;18.664;2024-01-06T13:24:28;0.60;;;0.60;;
18320;SDS011;54904;54.350;18.664;2024-01-06T13:26:55;0.80;;;0.50;;
18320;SDS011;54904;54.350;18.664;2024-01-06T13:29:24;0.50;;;0.50;;
18320;SDS011;54904;54.350;18.664;2024-01-06T13:31:55;0.40;;;0.40;;
18320;SDS011;54904;54.350;18.664;2024-01-06T13:34:22;1.33;;;0.50;;
18320;SDS011;54904;54.350;18.664;2024-01-06T13:36:49;0.60;;;0.60;;
18320;SDS011;54904;54.350;18.664;2024-01-06T13:39:16;0.50;;;0.50;;
18320;SDS011;54904;54.350;18.664;2024-01-06T13:41:45;1.23;;;0.80;;
18320;SDS011;54904;54.350;18.664;2024-01-06T13:44:16;1.27;;;0.53;;
18320;SDS011;54904;54.350;18.664;2024-01-06T13:46:43;0.67;;;0.67;;
18320;SDS011;54904;54.350;18.664;2024-01-06T13:49:12;1.33;;;0.50;;
18320;SDS011;54904;54.350;18.664;2024-01-06T13:51:40;0.70;;;0.70;;
18320;SDS011;54904;54.350;18.664;2024-01-06T13:54:07;1.00;;;1.00;;
18320;SDS011;54904;54.350;18.664;2024-01-06T13:56:34;0.90;;;0.90;;
18320;SDS011;54904;54.350;18.664;2024-01-06T13:59:02;1.07;;;0.97;;
18320;SDS011;54904;54.350;18.664;2024-01-06T14:01:29;1.10;;;1.00;;
18320;SDS011;54904;54.350;18.664;2024-01-06T14:03:56;0.73;;;0.73;;
18320;SDS011;54904;54.350;18.664;2024-01-06T14:06:25;0.70;;;0.70;;
18320;SDS011;54904;54.350;18.664;2024-01-06T14:08:55;2.10;;;1.00;;
18320;SDS011;54904;54.350;18.664;2024-01-06T14:11:22;1.07;;;0.80;;
18320;SDS011;54904;54.350;18.664;2024-01-06T14:13:50;1.33;;;0.70;;
18320;SDS011;54904;54.350;18.664;2024-01-06T14:16:17;4.03;;;0.90;;
18320;SDS011;54904;54.350;18.664;2024-01-06T14:18:45;0.73;;;0.60;;
18320;SDS011;54904;54.350;18.664;2024-01-06T14:21:13;1.70;;;0.83;;
18320;SDS011;54904;54.350;18.664;2024-01-06T14:23:42;0.70;;;0.60;;
18320;SDS011;54904;54.350;18.664;2024-01-06T14:26:09;2.00;;;1.03;;
18320;SDS011;54904;54.350;18.664;2024-01-06T14:28:36;0.60;;;0.60;;
18320;SDS011;54904;54.350;18.664;2024-01-06T14:31:03;1.53;;;0.83;;
18320;SDS011;54904;54.350;18.664;2024-01-06T14:33:30;1.40;;;0.80;;